sensor_id;sensor_type;location;lat;lon;timestamp;P1;durP1;ratioP1;P2;durP2;ratioP2
27632;SDS011;15046;50.930;13.334;2022-12-16T00:01:41;22.00;;;9.85;;
27632;SDS011;15046;50.930;13.334;2022-12-16T00:04:07;24.00;;;10.43;;
27632;SDS011;15046;50.930;13.334;2022-12-16T00:06:33;20.88;;;9.50;;
27632;SDS011;15046;50.930;13.334;2022-12-16T00:08:59;22.42;;;10.27;;
27632;SDS011;15046;50.930;13.334;2022-12-16T00:11:25;24.20;;;10.80;;
27632;SDS011;15046;50.930;13.334;2022-12-16T00:13:51;20.88;;;9.73;;
27632;SDS011;15046;50.930;13.334;2022-12-16T00:16:18;22.40;;;10.40;;
27632;SDS011;15046;50.930;13.334;2022-12-16T00:18:45;24.60;;;11.68;;
27632;SDS011;15046;50.930;13.334;2022-12-16T00:21:11;26.10;;;11.07;;
27632;SDS011;15046;50.930;13.334;2022-12-16T00:23:37;23.40;;;10.75;;
27632;SDS011;15046;50.930;13.334;2022-12-16T00:26:05;23.20;;;10.38;;
27632;SDS011;15046;50.930;13.334;2022-12-16T00:28:32;27.10;;;12.15;;
27632;SDS011;15046;50.930;13.334;2022-12-16T00:30:58;26.88;;;12.27;;
27632;SDS011;15046;50.930;13.334;2022-12-16T00:33:24;22.77;;;10.60;;
27632;SDS011;15046;50.930;13.334;2022-12-16T00:35:51;24.10;;;11.38;;
27632;SDS011;15046;50.930;13.334;2022-12-16T00:38:18;22.42;;;10.55;;
27632;SDS011;15046;50.930;13.334;2022-12-16T00:40:44;22.48;;;10.93;;
27632;SDS011;15046;50.930;13.334;2022-12-16T00:43:09;22.92;;;10.88;;
27632;SDS011;15046;50.930;13.334;2022-12-16T00:45:35;33.15;;;12.60;;
27632;SDS011;15046;50.930;13.334;2022-12-16T00:48:03;27.50;;;12.52;;
27632;SDS011;15046;50.930;13.334;2022-12-16T00:50:29;25.45;;;12.65;;
27632;SDS011;15046;50.930;13.334;2022-12-16T00:52:55;29.83;;;12.60;;
27632;SDS011;15046;50.930;13.334;2022-12-16T00:55:21;29.08;;;12.98;;
27632;SDS011;15046;50.930;13.334;2022-12-16T00:57:47;31.15;;;14.48;;
27632;SDS011;15046;50.930;13.334;2022-12-16T01:00:13;30.90;;;13.60;;
27632;SDS011;15046;50.930;13.334;2022-12-16T01:02:41;28.55;;;13.02;;
27632;SDS011;15046;50.930;13.334;2022-12-16T01:05:09;29.73;;;14.60;;
27632;SDS011;15046;50.930;13.334;2022-12-16T01:07:36;31.65;;;14.02;;
27632;SDS011;15046;50.930;13.334;2022-12-16T01:10:03;29.77;;;14.70;;
27632;SDS011;15046;50.930;13.334;2022-12-16T01:12:30;27.30;;;12.98;;
27632;SDS011;15046;50.930;13.334;2022-12-16T01:14:57;33.47;;;14.73;;
27632;SDS011;15046;50.930;13.334;2022-12-16T01:17:22;34.35;;;15.20;;
27632;SDS011;15046;50.930;13.334;2022-12-16T01:19:50;32.08;;;14.82;;
27632;SDS011;15046;50.930;13.334;2022-12-16T01:22:17;30.90;;;13.60;;
27632;SDS011;15046;50.930;13.334;2022-12-16T01:24:43;35.75;;;15.43;;
27632;SDS011;15046;50.930;13.334;2022-12-16T01:27:10;30.02;;;13.98;;
27632;SDS011;15046;50.930;13.334;2022-12-16T01:29:36;30.60;;;12.52;;
27632;SDS011;15046;50.930;13.334;2022-12-16T01:32:02;33.63;;;15.02;;
27632;SDS011;15046;50.930;13.334;2022-12-16T01:34:28;36.00;;;15.73;;
27632;SDS011;15046;50.930;13.334;2022-12-16T01:36:54;31.00;;;14.98;;
27632;SDS011;15046;50.930;13.334;2022-12-16T01:39:19;35.22;;;15.10;;
27632;SDS011;15046;50.930;13.334;2022-12-16T01:41:45;38.50;;;15.88;;
27632;SDS011;15046;50.930;13.334;2022-12-16T01:44:18;38.53;;;16.13;;
27632;SDS011;15046;50.930;13.334;2022-12-16T01:46:50;36.72;;;17.17;;
27632;SDS011;15046;50.930;13.334;2022-12-16T01:49:23;36.05;;;16.67;;
27632;SDS011;15046;50.930;13.334;2022-12-16T01:51:53;38.42;;;17.77;;
27632;SDS011;15046;50.930;13.334;2022-12-16T01:54:23;39.15;;;17.48;;
27632;SDS011;15046;50.930;13.334;2022-12-16T01:56:59;40.10;;;16.58;;
27632;SDS011;15046;50.930;13.334;2022-12-16T01:59:34;35.03;;;16.58;;
27632;SDS011;15046;50.930;13.334;2022-12-16T02:02:03;42.25;;;17.05;;
27632;SDS011;15046;50.930;13.334;2022-12-16T02:04:29;38.30;;;16.35;;
27632;SDS011;15046;50.930;13.334;2022-12-16T02:06:55;33.75;;;15.63;;
27632;SDS011;15046;50.930;13.334;2022-12-16T02:09:22;35.42;;;15.40;;
27632;SDS011;15046;50.930;13.334;2022-12-16T02:14:46;38.70;;;17.58;;
27632;SDS011;15046;50.930;13.334;2022-12-16T02:17:54;37.25;;;16.92;;
27632;SDS011;15046;50.930;13.334;2022-12-16T02:20:47;37.67;;;17.17;;
27632;SDS011;15046;50.930;13.334;2022-12-16T02:39:29;29.58;;;12.88;;
27632;SDS011;15046;50.930;13.334;2022-12-16T02:41:59;31.40;;;14.35;;
27632;SDS011;15046;50.930;13.334;2022-12-16T02:44:42;36.03;;;14.05;;
27632;SDS011;15046;50.930;13.334;2022-12-16T02:47:08;31.77;;;14.05;;
27632;SDS011;15046;50.930;13.334;2022-12-16T02:52:07;35.50;;;15.57;;
27632;SDS011;15046;50.930;13.334;2022-12-16T02:54:33;37.63;;;15.30;;
27632;SDS011;15046;50.930;13.334;2022-12-16T03:00:10;33.13;;;15.32;;
27632;SDS011;15046;50.930;13.334;2022-12-16T03:03:14;35.67;;;15.70;;
27632;SDS011;15046;50.930;13.334;2022-12-16T03:05:47;34.63;;;16.10;;
27632;SDS011;15046;50.930;13.334;2022-12-16T03:08:17;34.25;;;16.42;;
27632;SDS011;15046;50.930;13.334;2022-12-16T03:11:04;31.95;;;14.13;;
27632;SDS011;15046;50.930;13.334;2022-12-16T03:13:35;36.13;;;16.33;;
27632;SDS011;15046;50.930;13.334;2022-12-16T03:16:14;32.88;;;15.60;;
27632;SDS011;15046;50.930;13.334;2022-12-16T03:21:11;33.75;;;15.45;;
27632;SDS011;15046;50.930;13.334;2022-12-16T03:23:45;38.80;;;16.83;;
27632;SDS011;15046;50.930;13.334;2022-12-16T03:29:02;34.50;;;15.10;;
27632;SDS011;15046;50.930;13.334;2022-12-16T03:31:50;36.17;;;15.73;;
27632;SDS011;15046;50.930;13.334;2022-12-16T03:34:29;33.35;;;15.70;;
27632;SDS011;15046;50.930;13.334;2022-12-16T03:36:58;34.28;;;16.30;;
27632;SDS011;15046;50.930;13.334;2022-12-16T03:39:33;38.15;;;15.98;;
27632;SDS011;15046;50.930;13.334;2022-12-16T03:42:02;36.38;;;17.42;;
27632;SDS011;15046;50.930;13.334;2022-12-16T03:44:28;40.33;;;17.42;;
27632;SDS011;15046;50.930;13.334;2022-12-16T03:46:54;36.40;;;16.85;;
27632;SDS011;15046;50.930;13.334;2022-12-16T03:49:21;39.85;;;18.35;;
27632;SDS011;15046;50.930;13.334;2022-12-16T03:51:47;44.95;;;20.50;;
27632;SDS011;15046;50.930;13.334;2022-12-16T03:54:13;42.00;;;20.25;;
27632;SDS011;15046;50.930;13.334;2022-12-16T03:56:39;46.25;;;20.20;;
27632;SDS011;15046;50.930;13.334;2022-12-16T03:59:04;38.53;;;19.77;;
27632;SDS011;15046;50.930;13.334;2022-12-16T04:01:30;50.65;;;21.83;;
27632;SDS011;15046;50.930;13.334;2022-12-16T04:03:56;49.10;;;21.25;;
27632;SDS011;15046;50.930;13.334;2022-12-16T04:06:22;45.30;;;18.77;;
27632;SDS011;15046;50.930;13.334;2022-12-16T04:08:47;42.78;;;20.00;;
27632;SDS011;15046;50.930;13.334;2022-12-16T04:11:14;42.83;;;19.55;;
27632;SDS011;15046;50.930;13.334;2022-12-16T04:13:58;44.35;;;19.90;;
27632;SDS011;15046;50.930;13.334;2022-12-16T04:16:43;46.33;;;20.80;;
27632;SDS011;15046;50.930;13.334;2022-12-16T04:19:29;51.38;;;20.98;;
27632;SDS011;15046;50.930;13.334;2022-12-16T04:22:20;54.47;;;23.73;;
27632;SDS011;15046;50.930;13.334;2022-12-16T04:25:20;53.25;;;24.40;;
27632;SDS011;15046;50.930;13.334;2022-12-16T04:30:18;53.90;;;23.33;;
27632;SDS011;15046;50.930;13.334;2022-12-16T04:32:52;52.63;;;24.30;;
27632;SDS011;15046;50.930;13.334;2022-12-16T04:35:39;51.88;;;24.02;;
27632;SDS011;15046;50.930;13.334;2022-12-16T04:38:23;57.10;;;25.85;;
27632;SDS011;15046;50.930;13.334;2022-12-16T04:41:08;54.45;;;23.20;;
27632;SDS011;15046;50.930;13.334;2022-12-16T04:43:52;52.15;;;23.40;;
27632;SDS011;15046;50.930;13.334;2022-12-16T04:46:37;59.13;;;24.50;;
27632;SDS011;15046;50.930;13.334;2022-12-16T04:49:21;57.45;;;23.88;;
27632;SDS011;15046;50.930;13.334;2022-12-16T04:52:05;54.30;;;23.70;;
27632;SDS011;15046;50.930;13.334;2022-12-16T04:54:49;50.17;;;22.55;;
27632;SDS011;15046;50.930;13.334;2022-12-16T04:57:34;56.80;;;23.15;;
27632;SDS011;15046;50.930;13.334;2022-12-16T05:00:18;50.88;;;22.98;;
27632;SDS011;15046;50.930;13.334;2022-12-16T05:03:02;50.80;;;22.58;;
27632;SDS011;15046;50.930;13.334;2022-12-16T05:05:46;51.63;;;22.85;;
27632;SDS011;15046;50.930;13.334;2022-12-16T05:08:30;52.65;;;22.42;;
27632;SDS011;15046;50.930;13.334;2022-12-16T05:11:15;52.00;;;22.92;;
27632;SDS011;15046;50.930;13.334;2022-12-16T05:14:00;48.25;;;22.45;;
27632;SDS011;15046;50.930;13.334;2022-12-16T05:16:44;53.28;;;22.77;;
27632;SDS011;15046;50.930;13.334;2022-12-16T05:19:28;58.97;;;24.08;;
27632;SDS011;15046;50.930;13.334;2022-12-16T05:22:12;64.53;;;26.77;;
27632;SDS011;15046;50.930;13.334;2022-12-16T05:24:57;61.53;;;26.80;;
27632;SDS011;15046;50.930;13.334;2022-12-16T05:27:42;58.97;;;25.40;;
27632;SDS011;15046;50.930;13.334;2022-12-16T05:30:37;54.17;;;24.85;;
27632;SDS011;15046;50.930;13.334;2022-12-16T05:33:22;60.40;;;25.63;;
27632;SDS011;15046;50.930;13.334;2022-12-16T05:36:07;57.28;;;23.25;;
27632;SDS011;15046;50.930;13.334;2022-12-16T05:38:52;54.92;;;25.35;;
27632;SDS011;15046;50.930;13.334;2022-12-16T05:41:37;49.65;;;23.00;;
27632;SDS011;15046;50.930;13.334;2022-12-16T05:44:21;49.45;;;21.80;;
27632;SDS011;15046;50.930;13.334;2022-12-16T05:47:06;50.00;;;23.00;;
27632;SDS011;15046;50.930;13.334;2022-12-16T05:49:51;49.55;;;23.73;;
27632;SDS011;15046;50.930;13.334;2022-12-16T05:52:35;51.88;;;23.08;;
27632;SDS011;15046;50.930;13.334;2022-12-16T05:55:20;47.47;;;21.77;;
27632;SDS011;15046;50.930;13.334;2022-12-16T05:58:04;46.08;;;22.05;;
27632;SDS011;15046;50.930;13.334;2022-12-16T06:00:48;49.80;;;22.67;;
27632;SDS011;15046;50.930;13.334;2022-12-16T06:03:32;52.15;;;22.65;;
27632;SDS011;15046;50.930;13.334;2022-12-16T06:06:16;55.28;;;24.02;;
27632;SDS011;15046;50.930;13.334;2022-12-16T06:09:00;47.60;;;22.30;;
27632;SDS011;15046;50.930;13.334;2022-12-16T06:11:44;47.63;;;20.83;;
27632;SDS011;15046;50.930;13.334;2022-12-16T06:14:29;44.80;;;20.85;;
27632;SDS011;15046;50.930;13.334;2022-12-16T06:17:13;42.58;;;20.05;;
27632;SDS011;15046;50.930;13.334;2022-12-16T06:19:57;42.58;;;21.00;;
27632;SDS011;15046;50.930;13.334;2022-12-16T06:22:41;51.80;;;21.98;;
27632;SDS011;15046;50.930;13.334;2022-12-16T06:25:25;49.75;;;21.73;;
27632;SDS011;15046;50.930;13.334;2022-12-16T06:28:09;44.67;;;20.77;;
27632;SDS011;15046;50.930;13.334;2022-12-16T06:30:54;49.35;;;21.70;;
27632;SDS011;15046;50.930;13.334;2022-12-16T06:33:38;48.42;;;21.70;;
27632;SDS011;15046;50.930;13.334;2022-12-16T06:36:23;49.30;;;22.67;;
27632;SDS011;15046;50.930;13.334;2022-12-16T06:39:07;51.78;;;23.25;;
27632;SDS011;15046;50.930;13.334;2022-12-16T06:41:51;51.72;;;22.05;;
27632;SDS011;15046;50.930;13.334;2022-12-16T06:44:35;51.38;;;21.83;;
27632;SDS011;15046;50.930;13.334;2022-12-16T06:47:19;48.70;;;22.17;;
27632;SDS011;15046;50.930;13.334;2022-12-16T06:50:03;47.88;;;22.50;;
27632;SDS011;15046;50.930;13.334;2022-12-16T06:52:48;49.47;;;22.17;;
27632;SDS011;15046;50.930;13.334;2022-12-16T06:55:32;55.33;;;22.92;;
27632;SDS011;15046;50.930;13.334;2022-12-16T06:58:16;52.92;;;22.85;;
27632;SDS011;15046;50.930;13.334;2022-12-16T07:01:00;49.55;;;22.73;;
27632;SDS011;15046;50.930;13.334;2022-12-16T07:03:44;49.38;;;22.58;;
27632;SDS011;15046;50.930;13.334;2022-12-16T07:06:28;48.00;;;22.75;;
27632;SDS011;15046;50.930;13.334;2022-12-16T07:09:13;47.47;;;23.48;;
27632;SDS011;15046;50.930;13.334;2022-12-16T07:11:57;49.42;;;23.00;;
27632;SDS011;15046;50.930;13.334;2022-12-16T07:14:41;45.75;;;22.67;;
27632;SDS011;15046;50.930;13.334;2022-12-16T07:17:25;47.50;;;22.17;;
27632;SDS011;15046;50.930;13.334;2022-12-16T07:20:09;58.65;;;24.90;;
27632;SDS011;15046;50.930;13.334;2022-12-16T07:22:54;51.05;;;24.98;;
27632;SDS011;15046;50.930;13.334;2022-12-16T07:25:38;49.50;;;23.55;;
27632;SDS011;15046;50.930;13.334;2022-12-16T07:28:22;55.13;;;24.40;;
27632;SDS011;15046;50.930;13.334;2022-12-16T07:31:06;55.83;;;24.90;;
27632;SDS011;15046;50.930;13.334;2022-12-16T07:33:50;47.28;;;21.35;;
27632;SDS011;15046;50.930;13.334;2022-12-16T07:36:34;52.50;;;22.60;;
27632;SDS011;15046;50.930;13.334;2022-12-16T07:39:18;52.10;;;23.83;;
27632;SDS011;15046;50.930;13.334;2022-12-16T07:42:03;53.92;;;22.88;;
27632;SDS011;15046;50.930;13.334;2022-12-16T07:44:47;44.35;;;20.30;;
27632;SDS011;15046;50.930;13.334;2022-12-16T07:47:31;52.65;;;22.95;;
27632;SDS011;15046;50.930;13.334;2022-12-16T07:50:15;53.45;;;23.23;;
27632;SDS011;15046;50.930;13.334;2022-12-16T07:52:59;54.03;;;23.90;;
27632;SDS011;15046;50.930;13.334;2022-12-16T07:55:44;52.58;;;23.05;;
27632;SDS011;15046;50.930;13.334;2022-12-16T07:58:28;51.30;;;24.27;;
27632;SDS011;15046;50.930;13.334;2022-12-16T08:01:13;46.38;;;21.73;;
27632;SDS011;15046;50.930;13.334;2022-12-16T08:03:58;52.90;;;24.15;;
27632;SDS011;15046;50.930;13.334;2022-12-16T08:06:42;47.33;;;22.60;;
27632;SDS011;15046;50.930;13.334;2022-12-16T08:09:27;53.28;;;24.23;;
27632;SDS011;15046;50.930;13.334;2022-12-16T08:12:11;57.17;;;27.30;;
27632;SDS011;15046;50.930;13.334;2022-12-16T08:14:56;49.47;;;23.98;;
27632;SDS011;15046;50.930;13.334;2022-12-16T08:17:49;53.25;;;25.13;;
27632;SDS011;15046;50.930;13.334;2022-12-16T08:20:35;52.40;;;24.08;;
27632;SDS011;15046;50.930;13.334;2022-12-16T08:23:19;52.75;;;23.48;;
27632;SDS011;15046;50.930;13.334;2022-12-16T08:26:04;56.05;;;24.42;;
27632;SDS011;15046;50.930;13.334;2022-12-16T08:29:02;59.83;;;23.92;;
27632;SDS011;15046;50.930;13.334;2022-12-16T08:31:46;48.92;;;23.55;;
27632;SDS011;15046;50.930;13.334;2022-12-16T08:34:30;55.05;;;23.30;;
27632;SDS011;15046;50.930;13.334;2022-12-16T08:37:14;54.83;;;24.63;;
27632;SDS011;15046;50.930;13.334;2022-12-16T08:39:59;56.25;;;22.70;;
27632;SDS011;15046;50.930;13.334;2022-12-16T08:42:43;48.95;;;22.63;;
27632;SDS011;15046;50.930;13.334;2022-12-16T08:45:27;47.85;;;21.95;;
27632;SDS011;15046;50.930;13.334;2022-12-16T08:48:12;54.75;;;23.90;;
27632;SDS011;15046;50.930;13.334;2022-12-16T08:50:59;51.45;;;22.15;;
27632;SDS011;15046;50.930;13.334;2022-12-16T08:53:44;47.30;;;21.35;;
27632;SDS011;15046;50.930;13.334;2022-12-16T08:56:29;56.03;;;23.60;;
27632;SDS011;15046;50.930;13.334;2022-12-16T08:59:14;54.40;;;24.65;;
27632;SDS011;15046;50.930;13.334;2022-12-16T09:01:58;55.90;;;25.02;;
27632;SDS011;15046;50.930;13.334;2022-12-16T09:04:42;53.50;;;24.00;;
27632;SDS011;15046;50.930;13.334;2022-12-16T09:07:26;52.80;;;24.83;;
27632;SDS011;15046;50.930;13.334;2022-12-16T09:10:11;55.10;;;25.50;;
27632;SDS011;15046;50.930;13.334;2022-12-16T09:13:16;55.50;;;27.83;;
27632;SDS011;15046;50.930;13.334;2022-12-16T09:16:00;65.93;;;28.98;;
27632;SDS011;15046;50.930;13.334;2022-12-16T09:18:45;60.85;;;29.50;;
27632;SDS011;15046;50.930;13.334;2022-12-16T09:21:29;63.17;;;26.00;;
27632;SDS011;15046;50.930;13.334;2022-12-16T09:24:14;48.95;;;24.05;;
27632;SDS011;15046;50.930;13.334;2022-12-16T09:26:58;53.38;;;25.45;;
27632;SDS011;15046;50.930;13.334;2022-12-16T09:29:42;60.42;;;29.23;;
27632;SDS011;15046;50.930;13.334;2022-12-16T09:32:26;55.83;;;25.98;;
27632;SDS011;15046;50.930;13.334;2022-12-16T09:35:11;54.30;;;26.65;;
27632;SDS011;15046;50.930;13.334;2022-12-16T09:37:55;64.30;;;29.92;;
27632;SDS011;15046;50.930;13.334;2022-12-16T09:40:40;58.65;;;27.70;;
27632;SDS011;15046;50.930;13.334;2022-12-16T09:49:44;67.10;;;29.52;;
27632;SDS011;15046;50.930;13.334;2022-12-16T09:52:32;65.57;;;28.73;;
27632;SDS011;15046;50.930;13.334;2022-12-16T09:55:31;62.58;;;29.08;;
27632;SDS011;15046;50.930;13.334;2022-12-16T09:58:20;62.78;;;28.60;;
27632;SDS011;15046;50.930;13.334;2022-12-16T10:01:10;59.20;;;28.57;;
27632;SDS011;15046;50.930;13.334;2022-12-16T10:03:56;72.03;;;29.65;;
27632;SDS011;15046;50.930;13.334;2022-12-16T10:06:42;63.80;;;28.33;;
27632;SDS011;15046;50.930;13.334;2022-12-16T10:09:31;74.10;;;30.38;;
27632;SDS011;15046;50.930;13.334;2022-12-16T10:22:02;69.78;;;31.42;;
27632;SDS011;15046;50.930;13.334;2022-12-16T10:25:37;56.75;;;28.33;;
27632;SDS011;15046;50.930;13.334;2022-12-16T10:28:14;62.40;;;28.55;;
27632;SDS011;15046;50.930;13.334;2022-12-16T10:31:11;67.05;;;29.63;;
27632;SDS011;15046;50.930;13.334;2022-12-16T10:33:58;64.85;;;28.92;;
27632;SDS011;15046;50.930;13.334;2022-12-16T10:36:42;76.65;;;33.33;;
27632;SDS011;15046;50.930;13.334;2022-12-16T10:39:36;79.47;;;31.70;;
27632;SDS011;15046;50.930;13.334;2022-12-16T10:42:28;73.93;;;31.42;;
27632;SDS011;15046;50.930;13.334;2022-12-16T10:45:19;65.15;;;28.88;;
27632;SDS011;15046;50.930;13.334;2022-12-16T10:48:10;66.80;;;29.90;;
27632;SDS011;15046;50.930;13.334;2022-12-16T10:50:57;69.90;;;29.42;;
27632;SDS011;15046;50.930;13.334;2022-12-16T10:53:43;70.43;;;29.95;;
27632;SDS011;15046;50.930;13.334;2022-12-16T10:59:38;68.68;;;28.88;;
27632;SDS011;15046;50.930;13.334;2022-12-16T11:02:24;69.00;;;27.27;;
27632;SDS011;15046;50.930;13.334;2022-12-16T11:08:31;71.15;;;31.17;;
27632;SDS011;15046;50.930;13.334;2022-12-16T11:17:34;64.78;;;28.60;;
27632;SDS011;15046;50.930;13.334;2022-12-16T11:20:22;66.88;;;30.33;;
27632;SDS011;15046;50.930;13.334;2022-12-16T11:23:21;62.08;;;28.52;;
27632;SDS011;15046;50.930;13.334;2022-12-16T11:29:17;75.82;;;31.17;;
27632;SDS011;15046;50.930;13.334;2022-12-16T11:32:23;72.05;;;30.23;;
27632;SDS011;15046;50.930;13.334;2022-12-16T11:35:10;70.43;;;31.10;;
27632;SDS011;15046;50.930;13.334;2022-12-16T11:37:58;77.83;;;31.53;;
27632;SDS011;15046;50.930;13.334;2022-12-16T11:40:44;71.63;;;31.50;;
27632;SDS011;15046;50.930;13.334;2022-12-16T11:43:28;74.68;;;31.30;;
27632;SDS011;15046;50.930;13.334;2022-12-16T11:46:20;75.07;;;33.17;;
27632;SDS011;15046;50.930;13.334;2022-12-16T11:49:14;77.72;;;31.77;;
27632;SDS011;15046;50.930;13.334;2022-12-16T11:52:03;76.30;;;31.15;;
27632;SDS011;15046;50.930;13.334;2022-12-16T12:01:35;63.25;;;28.65;;
27632;SDS011;15046;50.930;13.334;2022-12-16T12:07:35;119.07;;;50.38;;
27632;SDS011;15046;50.930;13.334;2022-12-16T12:13:48;80.15;;;32.67;;
27632;SDS011;15046;50.930;13.334;2022-12-16T12:16:50;83.03;;;35.63;;
27632;SDS011;15046;50.930;13.334;2022-12-16T12:19:51;80.85;;;35.92;;
27632;SDS011;15046;50.930;13.334;2022-12-16T12:22:47;83.53;;;37.88;;
27632;SDS011;15046;50.930;13.334;2022-12-16T12:37:42;124.20;;;53.30;;
27632;SDS011;15046;50.930;13.334;2022-12-16T12:43:45;79.70;;;36.45;;
27632;SDS011;15046;50.930;13.334;2022-12-16T12:55:23;83.53;;;34.17;;
27632;SDS011;15046;50.930;13.334;2022-12-16T12:58:15;79.10;;;30.77;;
27632;SDS011;15046;50.930;13.334;2022-12-16T13:01:25;76.28;;;32.47;;
27632;SDS011;15046;50.930;13.334;2022-12-16T13:04:14;78.43;;;34.42;;
27632;SDS011;15046;50.930;13.334;2022-12-16T13:07:18;73.00;;;31.33;;
27632;SDS011;15046;50.930;13.334;2022-12-16T13:13:30;82.80;;;34.67;;
27632;SDS011;15046;50.930;13.334;2022-12-16T13:16:54;79.95;;;33.38;;
27632;SDS011;15046;50.930;13.334;2022-12-16T13:25:35;68.95;;;30.58;;
27632;SDS011;15046;50.930;13.334;2022-12-16T13:28:21;69.65;;;31.15;;
27632;SDS011;15046;50.930;13.334;2022-12-16T13:31:09;74.38;;;33.47;;
27632;SDS011;15046;50.930;13.334;2022-12-16T13:33:56;72.88;;;32.38;;
27632;SDS011;15046;50.930;13.334;2022-12-16T13:37:03;74.13;;;31.85;;
27632;SDS011;15046;50.930;13.334;2022-12-16T13:40:01;68.32;;;29.45;;
27632;SDS011;15046;50.930;13.334;2022-12-16T13:46:38;71.35;;;31.05;;
27632;SDS011;15046;50.930;13.334;2022-12-16T14:01:26;63.55;;;31.73;;
27632;SDS011;15046;50.930;13.334;2022-12-16T14:04:28;75.63;;;32.28;;
27632;SDS011;15046;50.930;13.334;2022-12-16T14:07:36;71.30;;;30.70;;
27632;SDS011;15046;50.930;13.334;2022-12-16T14:10:26;73.30;;;31.60;;
27632;SDS011;15046;50.930;13.334;2022-12-16T14:13:57;65.05;;;30.05;;
27632;SDS011;15046;50.930;13.334;2022-12-16T14:16:46;65.40;;;29.65;;
27632;SDS011;15046;50.930;13.334;2022-12-16T14:23:15;64.20;;;28.25;;
27632;SDS011;15046;50.930;13.334;2022-12-16T14:26:15;69.72;;;31.73;;
27632;SDS011;15046;50.930;13.334;2022-12-16T14:29:00;73.65;;;32.38;;
27632;SDS011;15046;50.930;13.334;2022-12-16T14:31:54;66.95;;;30.88;;
27632;SDS011;15046;50.930;13.334;2022-12-16T14:34:38;70.28;;;33.15;;
27632;SDS011;15046;50.930;13.334;2022-12-16T14:37:27;68.88;;;31.25;;
27632;SDS011;15046;50.930;13.334;2022-12-16T14:40:18;71.82;;;33.08;;
27632;SDS011;15046;50.930;13.334;2022-12-16T14:43:15;72.95;;;34.15;;
27632;SDS011;15046;50.930;13.334;2022-12-16T14:46:05;69.97;;;34.70;;
27632;SDS011;15046;50.930;13.334;2022-12-16T14:49:52;68.90;;;33.60;;
27632;SDS011;15046;50.930;13.334;2022-12-16T14:52:30;72.47;;;32.70;;
27632;SDS011;15046;50.930;13.334;2022-12-16T14:55:26;74.68;;;34.40;;
27632;SDS011;15046;50.930;13.334;2022-12-16T14:58:16;77.65;;;35.90;;
27632;SDS011;15046;50.930;13.334;2022-12-16T15:01:12;73.90;;;34.85;;
27632;SDS011;15046;50.930;13.334;2022-12-16T15:04:01;74.20;;;36.92;;
27632;SDS011;15046;50.930;13.334;2022-12-16T15:06:49;80.28;;;34.95;;
27632;SDS011;15046;50.930;13.334;2022-12-16T15:09:53;78.88;;;34.25;;
27632;SDS011;15046;50.930;13.334;2022-12-16T15:12:40;77.53;;;36.28;;
27632;SDS011;15046;50.930;13.334;2022-12-16T15:15:31;77.07;;;33.92;;
27632;SDS011;15046;50.930;13.334;2022-12-16T15:18:26;76.07;;;35.45;;
27632;SDS011;15046;50.930;13.334;2022-12-16T15:21:24;79.68;;;35.58;;
27632;SDS011;15046;50.930;13.334;2022-12-16T15:24:12;82.90;;;36.80;;
27632;SDS011;15046;50.930;13.334;2022-12-16T15:33:21;81.22;;;35.17;;
27632;SDS011;15046;50.930;13.334;2022-12-16T15:36:27;76.22;;;33.38;;
27632;SDS011;15046;50.930;13.334;2022-12-16T15:39:17;76.40;;;34.15;;
27632;SDS011;15046;50.930;13.334;2022-12-16T15:42:20;76.95;;;33.25;;
27632;SDS011;15046;50.930;13.334;2022-12-16T15:45:05;74.13;;;33.05;;
27632;SDS011;15046;50.930;13.334;2022-12-16T15:48:28;71.50;;;32.95;;
27632;SDS011;15046;50.930;13.334;2022-12-16T15:51:19;73.57;;;34.78;;
27632;SDS011;15046;50.930;13.334;2022-12-16T15:54:14;84.28;;;35.33;;
27632;SDS011;15046;50.930;13.334;2022-12-16T16:00:43;76.40;;;34.35;;
27632;SDS011;15046;50.930;13.334;2022-12-16T16:03:24;72.70;;;32.95;;
27632;SDS011;15046;50.930;13.334;2022-12-16T16:06:17;71.68;;;34.55;;
27632;SDS011;15046;50.930;13.334;2022-12-16T16:09:11;75.80;;;34.03;;
27632;SDS011;15046;50.930;13.334;2022-12-16T16:12:10;66.22;;;31.58;;
27632;SDS011;15046;50.930;13.334;2022-12-16T16:14:55;71.93;;;30.27;;
27632;SDS011;15046;50.930;13.334;2022-12-16T16:17:39;71.07;;;32.83;;
27632;SDS011;15046;50.930;13.334;2022-12-16T16:20:24;69.43;;;32.75;;
27632;SDS011;15046;50.930;13.334;2022-12-16T16:23:08;77.90;;;34.75;;
27632;SDS011;15046;50.930;13.334;2022-12-16T16:25:53;72.50;;;33.72;;
27632;SDS011;15046;50.930;13.334;2022-12-16T16:28:39;70.53;;;33.30;;
27632;SDS011;15046;50.930;13.334;2022-12-16T16:31:23;76.97;;;34.88;;
27632;SDS011;15046;50.930;13.334;2022-12-16T16:34:07;72.88;;;33.40;;
27632;SDS011;15046;50.930;13.334;2022-12-16T16:36:52;73.60;;;34.28;;
27632;SDS011;15046;50.930;13.334;2022-12-16T16:39:37;78.10;;;33.42;;
27632;SDS011;15046;50.930;13.334;2022-12-16T16:42:23;73.10;;;34.28;;
27632;SDS011;15046;50.930;13.334;2022-12-16T16:45:07;69.10;;;34.85;;
27632;SDS011;15046;50.930;13.334;2022-12-16T16:48:01;72.55;;;35.47;;
27632;SDS011;15046;50.930;13.334;2022-12-16T16:50:54;76.95;;;34.28;;
27632;SDS011;15046;50.930;13.334;2022-12-16T16:53:39;81.68;;;36.72;;
27632;SDS011;15046;50.930;13.334;2022-12-16T16:56:25;74.43;;;35.75;;
27632;SDS011;15046;50.930;13.334;2022-12-16T16:59:11;73.50;;;35.85;;
27632;SDS011;15046;50.930;13.334;2022-12-16T17:02:17;71.20;;;33.47;;
27632;SDS011;15046;50.930;13.334;2022-12-16T17:05:10;75.22;;;34.05;;
27632;SDS011;15046;50.930;13.334;2022-12-16T17:07:55;73.78;;;35.03;;
27632;SDS011;15046;50.930;13.334;2022-12-16T17:10:40;81.95;;;35.10;;
27632;SDS011;15046;50.930;13.334;2022-12-16T17:13:25;76.72;;;34.95;;
27632;SDS011;15046;50.930;13.334;2022-12-16T17:16:10;70.57;;;34.50;;
27632;SDS011;15046;50.930;13.334;2022-12-16T17:18:55;69.70;;;32.20;;
27632;SDS011;15046;50.930;13.334;2022-12-16T17:21:39;64.60;;;31.13;;
27632;SDS011;15046;50.930;13.334;2022-12-16T17:24:28;63.35;;;32.17;;
27632;SDS011;15046;50.930;13.334;2022-12-16T17:27:17;63.22;;;31.73;;
27632;SDS011;15046;50.930;13.334;2022-12-16T17:30:08;63.10;;;31.48;;
27632;SDS011;15046;50.930;13.334;2022-12-16T17:33:00;75.75;;;35.00;;
27632;SDS011;15046;50.930;13.334;2022-12-16T17:35:46;69.95;;;34.08;;
27632;SDS011;15046;50.930;13.334;2022-12-16T17:38:32;72.72;;;33.45;;
27632;SDS011;15046;50.930;13.334;2022-12-16T17:41:20;66.83;;;32.93;;
27632;SDS011;15046;50.930;13.334;2022-12-16T17:44:06;65.40;;;32.05;;
27632;SDS011;15046;50.930;13.334;2022-12-16T17:46:50;64.88;;;32.38;;
27632;SDS011;15046;50.930;13.334;2022-12-16T17:49:34;69.80;;;32.22;;
27632;SDS011;15046;50.930;13.334;2022-12-16T17:52:18;71.50;;;33.00;;
27632;SDS011;15046;50.930;13.334;2022-12-16T17:55:02;73.55;;;35.00;;
27632;SDS011;15046;50.930;13.334;2022-12-16T17:57:47;66.57;;;31.10;;
27632;SDS011;15046;50.930;13.334;2022-12-16T18:00:31;73.90;;;33.13;;
27632;SDS011;15046;50.930;13.334;2022-12-16T18:03:15;67.13;;;32.65;;